Latest Weather Observations for Rolleston Airport

IDQ60801

Issued at 6:05 pm EST Sunday 31 August 2014 (issued every 30 minutes, with the page automatically refreshed every 10 minutes)

About weather observations | Map of weather stations | Latest weather observations for QLD | Other Formats
Station Details ID: 035129 Name: ROLLESTON AIRPORT Lat: -24.46 Lon: 148.63 Height: 219.45 m
Data from the previous 72 hours. | See also: Recent months at Rolleston Airport
Date/Time
EST
Temp
°C
App
Temp
°C
Dew
Point
Rel
Hum
%
Delta-T
°C
Wind Press
QNH
hPa
Press
MSL
hPa
Rain
since 9 am
mm
Dir
 
Spd
km/h
Gust
km/h
Spd
kts
Gust
kts
31/06:00pm 23.3 19.7 -3.9 16 11.6 E 6 7 3 4 1015.8 1015.5 0.2
31/05:30pm 24.8 22.2 -4.5 14 12.5 SE 0 0 0 0 1015.7 1015.4 0.2
31/05:00pm 25.5 21.8 -4.9 13 13.0 E 6 9 3 5 1015.5 1015.2 0.2
31/04:30pm 25.6 21.8 -3.8 14 12.8 SSE 7 11 4 6 1015.3 1015.0 0.0
31/04:00pm 26.3 22.6 -4.3 13 13.3 SW 6 11 3 6 1015.3 1015.0 0.0
31/03:30pm 26.5 23.2 -4.1 13 13.4 E 4 11 2 6 1015.2 1014.9 0.0
31/03:00pm 26.7 23.1 -4.0 13 13.4 SW 6 11 3 6 1015.5 1015.2 0.0
31/02:30pm 25.6 21.7 -4.8 13 13.0 S 7 17 4 9 1015.8 1015.5 0.0
31/02:00pm 25.3 21.4 -5.1 13 12.9 WSW 7 13 4 7 1016.1 1015.8 0.0
31/01:30pm 25.0 20.7 -5.3 13 12.8 SSW 9 17 5 9 1016.7 1016.3 0.0
31/01:00pm 24.2 19.3 -3.2 16 11.9 W 13 24 7 13 1017.1 1016.7 0.0
31/12:30pm 24.3 20.8 -3.1 16 12.0 SW 6 17 3 9 1017.7 1017.4 0.0
31/12:00pm 23.6 20.5 -2.8 17 11.5 SW 4 13 2 7 1018.4 1018.1 0.0
31/11:30am 23.4 20.0 -2.2 18 11.3 WSW 6 11 3 6 1018.8 1018.5 0.0
31/11:00am 22.1 18.5 -3.3 18 10.8 SSW 6 11 3 6 1019.5 1019.2 0.0
31/10:30am 21.7 18.2 -2.9 19 10.5 SW 6 11 3 6 1020.1 1019.8 0.0
31/10:00am 20.8 17.2 -2.3 21 9.9 S 7 15 4 8 1020.5 1020.2 0.0
31/09:30am 19.5 15.6 -1.6 24 9.1 S 9 15 5 8 1020.7 1020.4 0.0
31/09:00am 16.9 13.4 -1.2 29 7.6 S 7 11 4 6 1021.0 1020.8 0.0
31/08:30am 14.0 11.1 -0.8 36 6.2 S 4 6 2 3 1021.1 1020.9 0.0
31/08:00am 11.3 8.0 -1.5 41 5.1 S 6 11 3 6 1020.7 1020.4 0.0
31/07:30am 8.5 5.5 -1.9 48 4.0 S 4 7 2 4 1020.5 1020.2 0.0
31/07:00am 6.3 4.0 -2.1 55 3.1 CALM 0 0 0 0 1020.3 1020.0 0.0
31/06:30am 4.1 1.7 -3.0 60 2.5 CALM 0 2 0 1 1020.1 1019.8 0.0
31/06:00am 3.6 0.1 -3.0 62 2.3 S 6 7 3 4 1019.7 1019.4 0.0
31/05:30am 3.7 0.2 -2.9 62 2.3 S 6 7 3 4 1019.3 1019.0 0.0
31/05:00am 5.4 2.3 -2.4 57 2.8 SSE 4 6 2 3 1019.1 1018.8 0.0
31/04:30am 6.2 3.5 -2.4 54 3.2 ESE 2 4 1 2 1019.0 1018.7 0.0
31/04:00am 6.3 2.7 -3.3 50 3.4 SSE 6 7 3 4 1018.8 1018.5 0.0
31/03:30am 7.0 3.5 -2.7 50 3.6 S 6 7 3 4 1018.7 1018.4 0.0
31/03:00am 7.4 5.2 -1.8 52 3.5 CALM 0 4 0 2 1019.0 1018.7 0.0
31/02:30am 7.4 5.1 -2.3 50 3.6 CALM 0 0 0 0 1019.1 1018.8 0.0
31/02:00am 7.3 4.9 -3.0 48 3.8 CALM 0 0 0 0 1019.1 1018.8 0.0
31/01:30am 10.1 7.6 -3.6 38 5.1 CALM 0 0 0 0 1019.3 1019.0 0.0
31/01:00am 10.0 7.7 -2.3 42 4.7 CALM 0 0 0 0 1019.4 1019.1 0.0
31/12:30am 9.4 7.0 -2.8 42 4.6 CALM 0 0 0 0 1019.5 1019.2 0.0
31/12:00am 11.3 8.3 -1.8 40 5.2 SE 4 6 2 3 1019.6 1019.3 0.0
 
Date/Time
EST
Temp
°C
App
Temp
°C
Dew
Point
Rel
Hum
%
Delta-T
°C
Wind Press
QNH
hPa
Press
MSL
hPa
Rain
since 9 am
mm
Dir
 
Spd
km/h
Gust
km/h
Spd
kts
Gust
kts
30/11:30pm 11.9 8.6 -4.2 32 6.1 SSE 4 6 2 3 1019.7 1019.4 0.0
30/11:00pm 12.2 8.9 -4.4 31 6.2 S 4 4 2 2 1019.6 1019.3 0.0
30/10:30pm 12.1 8.4 -4.1 32 6.1 S 6 7 3 4 1019.4 1019.1 0.0
30/10:00pm 12.9 8.7 -3.8 31 6.4 SE 9 9 5 5 1019.3 1019.0 0.0
30/09:30pm 13.7 9.4 -4.9 27 7.0 SE 9 13 5 7 1019.1 1018.8 0.0
30/09:00pm 14.2 10.4 -3.6 29 7.0 SE 7 11 4 6 1019.1 1018.8 0.0
30/08:30pm 14.9 10.6 -4.4 26 7.5 SE 9 13 5 7 1018.9 1018.6 0.0
30/08:00pm 15.5 11.6 -5.0 24 7.9 SSE 7 7 4 4 1018.7 1018.4 0.0
30/07:30pm 16.6 12.3 -4.6 23 8.3 SSE 9 11 5 6 1018.5 1018.2 0.0
30/07:00pm 18.3 14.0 -4.4 21 9.1 SE 9 9 5 5 1018.0 1017.7 0.0
30/06:30pm 19.4 15.1 -4.8 19 9.8 SE 9 13 5 7 1017.6 1017.3 0.0
30/06:00pm 20.3 15.7 -4.0 19 10.0 SE 11 15 6 8 1017.2 1016.9 0.0
30/05:30pm 23.7 18.7 -4.4 15 11.9 SSE 13 17 7 9 1017.0 1016.6 0.0
30/05:00pm 24.5 19.8 -4.7 14 12.4 SSE 11 19 6 10 1016.8 1016.4 0.0
30/04:30pm 25.4 20.6 -6.0 12 13.1 S 11 19 6 10 1016.7 1016.3 0.0
30/04:00pm 25.5 20.7 -6.0 12 13.1 SW 11 19 6 10 1016.7 1016.3 0.0
30/03:30pm 25.5 21.1 -6.0 12 13.2 S 9 19 5 10 1016.8 1016.4 0.0
30/03:00pm 25.8 20.8 -4.7 13 13.1 S 13 22 7 12 1017.1 1016.7 0.0
30/02:30pm 25.2 20.1 -5.1 13 12.8 S 13 24 7 13 1017.6 1017.3 0.0
30/02:00pm 25.3 20.6 -5.1 13 12.9 SSW 11 19 6 10 1017.9 1017.6 0.0
30/01:30pm 24.1 19.1 -0.9 19 11.4 S 15 24 8 13 1018.5 1018.2 0.0
30/01:00pm 23.8 19.0 0.2 21 10.9 S 15 24 8 13 1019.2 1018.9 0.0
30/12:30pm 22.4 18.8 0.9 24 10.0 SSW 9 17 5 9 1019.9 1019.6 0.0
30/12:00pm 22.2 18.4 1.8 26 9.6 SW 11 17 6 9 1020.5 1020.2 0.0
30/11:30am 21.1 17.2 0.9 26 9.3 SSW 11 20 6 11 1021.3 1021.1 0.0
30/11:00am 20.6 16.0 1.5 28 8.8 SSE 15 33 8 18 1021.8 1021.5 0.0
30/10:30am 19.6 15.3 1.1 29 8.4 S 13 24 7 13 1022.2 1021.9 0.0
30/10:00am 19.0 14.3 1.1 30 8.1 S 15 24 8 13 1022.5 1022.2 0.0
30/09:30am 18.3 13.7 1.3 32 7.7 S 15 28 8 15 1022.9 1022.6 0.0
30/09:00am 17.0 13.5 1.4 35 7.0 S 9 15 5 8 1023.0 1022.7 0.0
30/08:30am 15.6 12.4 0.6 36 6.5 S 7 13 4 7 1023.1 1022.8 0.0
30/08:00am 13.0 10.1 1.7 46 4.9 SSE 6 7 3 4 1023.1 1022.8 0.0
30/07:30am 11.3 9.3 2.3 54 3.9 SE 2 4 1 2 1023.1 1022.8 0.0
30/07:00am 7.0 4.8 1.1 66 2.4 E 2 4 1 2 1023.1 1022.8 0.0
30/06:30am 5.5 2.8 0.5 70 2.0 N 4 6 2 3 1022.8 1022.5 0.0
30/06:00am 7.7 5.5 1.1 63 2.7 ESE 2 4 1 2 1022.3 1022.0 0.0
30/05:30am 7.6 5.8 1.0 63 2.7 CALM 0 4 0 2 1021.9 1021.6 0.0
30/05:00am 7.6 4.5 1.2 64 2.6 SSE 7 9 4 5 1021.3 1021.1 0.0
30/04:30am 7.7 4.6 1.5 65 2.6 SSE 7 7 4 4 1020.9 1020.6 0.0
30/04:00am 7.9 4.4 1.5 64 2.6 SSE 9 9 5 5 1020.6 1020.3 0.0
30/03:30am 8.3 5.5 1.9 64 2.7 SSE 6 7 3 4 1020.6 1020.3 0.0
30/03:00am 9.4 6.5 2.5 62 2.9 S 7 9 4 5 1020.7 1020.4 0.0
30/02:30am 9.8 7.1 2.4 60 3.2 SE 6 6 3 3 1021.0 1020.8 0.0
30/02:00am 10.2 7.3 2.8 60 3.2 SSE 7 9 4 5 1020.9 1020.6 0.0
30/01:30am 10.8 7.9 2.6 57 3.6 SSE 7 9 4 5 1021.0 1020.8 0.0
30/01:00am 11.3 8.4 2.6 55 3.8 SSE 7 7 4 4 1021.0 1020.8 0.0
30/12:30am 11.8 8.6 3.1 55 3.9 SE 9 9 5 5 1021.1 1020.9 0.0
30/12:00am 12.0 9.2 3.0 54 4.0 SSE 7 9 4 5 1021.1 1020.9 0.0
 
Date/Time
EST
Temp
°C
App
Temp
°C
Dew
Point
Rel
Hum
%
Delta-T
°C
Wind Press
QNH
hPa
Press
MSL
hPa
Rain
since 9 am
mm
Dir
 
Spd
km/h
Gust
km/h
Spd
kts
Gust
kts
29/11:30pm 12.4 9.2 2.8 52 4.3 SSE 9 11 5 6 1020.9 1020.6 0.0
29/11:00pm 12.6 9.6 2.2 49 4.5 SSE 7 9 4 5 1020.7 1020.4 0.0
29/10:30pm 13.0 10.0 2.0 47 4.8 S 7 9 4 5 1020.7 1020.4 0.0
29/10:00pm 14.3 11.9 1.9 43 5.5 S 4 6 2 3 1020.8 1020.5 0.0
29/09:30pm 15.4 11.8 2.9 43 5.7 SE 11 13 6 7 1020.7 1020.4 0.0
29/09:00pm 15.3 11.5 1.8 40 6.0 SSE 11 13 6 7 1020.6 1020.3 0.0
29/08:30pm 16.7 12.6 2.3 38 6.6 SSE 13 15 7 8 1020.6 1020.3 0.0
29/08:00pm 16.1 12.6 1.4 37 6.5 SE 9 11 5 6 1020.4 1020.1 0.0
29/07:30pm 17.8 14.8 1.7 34 7.3 ESE 7 9 4 5 1020.1 1019.8 0.0
29/07:00pm 19.4 16.6 1.9 31 8.1 S 6 7 3 4 1019.7 1019.4 0.0
29/06:30pm 20.8 17.9 1.6 28 8.9 SSW 6 7 3 4 1019.4 1019.1 0.0
29/06:00pm 22.4 19.5 1.4 25 9.8 S 6 7 3 4 1019.0 1018.7 0.0
29/05:30pm 24.3 21.2 1.2 22 10.9 SSW 7 11 4 6 1018.9 1018.6 0.0
29/05:00pm 24.9 20.9 0.4 20 11.4 SSW 11 19 6 10 1018.6 1018.3 0.0
29/04:30pm 25.1 22.0 1.3 21 11.3 S 7 15 4 8 1018.5 1018.2 0.0
29/04:00pm 25.3 21.4 1.4 21 11.4 S 11 19 6 10 1018.4 1018.1 0.0
29/03:30pm 25.2 21.3 1.3 21 11.4 S 11 19 6 10 1018.6 1018.3 0.0
29/03:00pm 24.9 21.4 1.1 21 11.3 WSW 9 17 5 9 1018.8 1018.5 0.0
29/02:30pm 25.0 21.1 1.2 21 11.3 SSW 11 22 6 12 1019.2 1018.9 0.0
29/02:00pm 24.9 21.0 1.1 21 11.3 S 11 22 6 12 1019.4 1019.1 0.0
29/01:30pm 24.5 20.3 1.4 22 11.0 SSW 13 26 7 14 1019.9 1019.6 0.0
29/01:00pm 24.0 21.2 3.3 26 10.1 SSW 7 20 4 11 1020.3 1020.0 0.0
29/12:30pm 24.4 21.2 3.1 25 10.4 SW 9 20 5 11 1020.7 1020.4 0.0
29/12:00pm 23.3 19.9 3.8 28 9.6 SSW 11 22 6 12 1021.5 1021.2 0.0
29/11:30am 23.2 20.8 5.2 31 9.1 S 7 19 4 10 1022.2 1021.9 0.0
29/11:00am 22.5 18.5 5.0 32 8.7 SE 15 28 8 15 1022.7 1022.4 0.0
29/10:30am 21.6 18.6 5.9 36 8.0 SE 11 19 6 10 1023.1 1022.8 0.0
29/10:00am 21.1 18.6 6.6 39 7.4 SE 9 17 5 9 1023.5 1023.2 0.0
29/09:30am 20.3 17.5 7.0 42 6.8 SE 11 17 6 9 1023.7 1023.4 0.0
29/09:00am 18.7 15.6 7.2 47 5.8 SSE 13 17 7 9 1023.7 1023.4 0.0
29/08:30am 17.2 14.1 7.3 52 5.0 S 13 17 7 9 1023.8 1023.5 0.0
29/08:00am 13.9 11.6 5.8 58 3.9 SSE 7 11 4 6 1023.6 1023.3 0.0
29/07:30am 11.2 8.9 4.9 65 2.9 S 6 9 3 5 1023.3 1023.0 0.0
29/07:00am 9.3 6.9 4.1 70 2.3 S 6 6 3 3 1023.0 1022.7 0.0
29/06:30am 9.2 6.7 4.8 74 2.0 SSE 7 9 4 5 1022.4 1022.1 0.0
29/06:00am 8.6 5.3 4.6 76 1.8 SE 11 13 6 7 1022.0 1021.7 0.0
29/05:30am 9.0 5.8 5.0 76 1.8 SE 11 13 6 7 1021.8 1021.5 0.0
29/05:00am 7.7 4.6 3.6 75 1.8 SSE 9 9 5 5 1021.6 1021.3 0.0
29/04:30am 8.7 6.0 3.9 72 2.1 SSE 7 9 4 5 1021.5 1021.2 0.0
29/04:00am 9.3 6.6 3.7 68 2.5 SSE 7 7 4 4 1021.2 1021.0 0.0
29/03:30am 9.0 6.5 3.6 69 2.4 SSE 6 6 3 3 1021.1 1020.9 0.0
29/03:00am 9.3 6.8 3.9 69 2.4 S 6 6 3 3 1021.1 1020.9 0.0
29/02:30am 8.8 6.1 2.6 65 2.7 S 6 7 3 4 1021.1 1020.9 0.0
29/02:00am 10.6 8.4 3.6 62 3.1 S 4 6 2 3 1021.3 1021.1 0.0
29/01:30am 10.5 8.4 3.8 63 3.0 S 4 6 2 3 1021.6 1021.3 0.0
29/01:00am 10.9 8.7 3.5 60 3.3 S 4 6 2 3 1021.6 1021.3 0.0
29/12:30am 11.4 8.4 3.9 60 3.4 SSE 9 11 5 6 1021.5 1021.2 0.0
29/12:00am 12.1 9.1 4.1 58 3.6 SE 9 9 5 5 1021.6 1021.3 0.0
 
Date/Time
EST
Temp
°C
App
Temp
°C
Dew
Point
Rel
Hum
%
Delta-T
°C
Wind Press
QNH
hPa
Press
MSL
hPa
Rain
since 9 am
mm
Dir
 
Spd
km/h
Gust
km/h
Spd
kts
Gust
kts
28/11:30pm 12.1 8.7 4.1 58 3.6 SE 11 11 6 6 1021.7 1021.4 0.0
28/11:00pm 12.7 9.7 4.2 56 3.9 SE 9 11 5 6 1021.7 1021.4 0.0
28/10:30pm 13.2 10.2 4.1 54 4.2 SE 9 9 5 5 1021.6 1021.3 0.0
28/10:00pm 14.2 11.5 3.9 50 4.7 SSE 7 7 4 4 1021.3 1021.1 0.0
28/09:30pm 14.7 11.6 3.8 48 5.0 SSE 9 11 5 6 1021.2 1021.0 0.0
28/09:00pm 16.3 13.7 4.0 44 5.8 SSE 7 9 4 5 1021.0 1020.8 0.0
28/08:30pm 18.4 15.5 4.6 40 6.7 S 9 13 5 7 1020.8 1020.5 0.0
28/08:00pm 19.0 15.3 4.7 39 6.9 S 13 17 7 9 1020.5 1020.2 0.0
28/07:30pm 19.0 16.4 4.4 38 7.1 S 7 11 4 6 1020.2 1019.9 0.0
28/07:00pm 19.9 17.0 4.4 36 7.5 S 9 15 5 8 1019.9 1019.6 0.0
28/06:30pm 21.0 18.0 4.1 33 8.2 S 9 17 5 9 1019.5 1019.2 0.0

Other Formats:

Comma delimited format used in spreadsheet applications
http://www.bom.gov.au/fwo/IDQ60801/IDQ60801.94396.axf

JavaScript Object Notation format (JSON) in row-major order
http://www.bom.gov.au/fwo/IDQ60801/IDQ60801.94396.json